Country
Station

 

Weather  for  Minsk  -  Belarus    Belarus

  
0 °C (32 °F)
    
 
 

Current METAR for Minsk is :

UMMS 240100Z 24001MPS CAVOK M00/M01 Q0995 R88/CLRD// NOSIG

 

This is a report for Minsk - Belarus.
 
The report was made 20 minutes ago, at 01:00 UTC .
The wind was blowing at a speed of 1 meters per second (2.2 miles per hour) from west/southwest (240°).
 
The temperature was 0 °C (32 °F), with a dew-point at -1 °C (30 °F).
The atmospheric pressure was 995 hPa (29.38 inHg).
There were no clouds below 1500 meter (5000 feet) and no cumulonimbus clouds.
 
The overall visibility was greater than 10 kilometers (6.2 miles).
 

 
 
 
 

Country :   A   B   C   D   E   F   G   H   I   J   K   L   M   N   O   P   Q   R   S   T   U   V   W   Y   Z

 

Site Info  |  Disclaimer  |  Credits  |  Privacy
Contact us  |  Add to favorites
© 2013-2020 METARs - All rights reserved